sensor_id;sensor_type;location;lat;lon;timestamp;pressure;altitude;pressure_sealevel;temperature
68939;BMP180;59064;45.294;11.816;2023-03-31T00:00:29;101532.20;;;11.10
68939;BMP180;59064;45.294;11.816;2023-03-31T00:02:55;101532.80;;;11.02
68939;BMP180;59064;45.294;11.816;2023-03-31T00:05:22;101531.40;;;11.00
68939;BMP180;59064;45.294;11.816;2023-03-31T00:07:55;101538.20;;;10.90
68939;BMP180;59064;45.294;11.816;2023-03-31T00:10:26;101532.40;;;10.80
68939;BMP180;59064;45.294;11.816;2023-03-31T00:12:52;101531.20;;;10.70
68939;BMP180;59064;45.294;11.816;2023-03-31T00:15:17;101526.80;;;10.70
68939;BMP180;59064;45.294;11.816;2023-03-31T00:17:43;101526.20;;;10.60
68939;BMP180;59064;45.294;11.816;2023-03-31T00:20:08;101526.00;;;10.60
68939;BMP180;59064;45.294;11.816;2023-03-31T00:22:37;101522.40;;;10.56
68939;BMP180;59064;45.294;11.816;2023-03-31T00:25:04;101523.80;;;10.50
68939;BMP180;59064;45.294;11.816;2023-03-31T00:27:29;101525.20;;;10.50
68939;BMP180;59064;45.294;11.816;2023-03-31T00:29:55;101528.80;;;10.50
68939;BMP180;59064;45.294;11.816;2023-03-31T00:32:21;101530.20;;;10.56
68939;BMP180;59064;45.294;11.816;2023-03-31T00:34:46;101535.20;;;10.60
68939;BMP180;59064;45.294;11.816;2023-03-31T00:37:12;101531.80;;;10.60
68939;BMP180;59064;45.294;11.816;2023-03-31T00:39:38;101526.40;;;10.60
68939;BMP180;59064;45.294;11.816;2023-03-31T00:42:04;101529.00;;;10.64
68939;BMP180;59064;45.294;11.816;2023-03-31T00:44:30;101527.60;;;10.70
68939;BMP180;59064;45.294;11.816;2023-03-31T00:49:36;101521.40;;;10.70
68939;BMP180;59064;45.294;11.816;2023-03-31T00:52:24;101517.40;;;10.70
68939;BMP180;59064;45.294;11.816;2023-03-31T00:55:04;101509.40;;;10.72
68939;BMP180;59064;45.294;11.816;2023-03-31T00:57:34;101506.80;;;10.78
68939;BMP180;59064;45.294;11.816;2023-03-31T01:00:05;101501.00;;;10.80
68939;BMP180;59064;45.294;11.816;2023-03-31T01:02:56;101497.40;;;10.80
68939;BMP180;59064;45.294;11.816;2023-03-31T01:05:26;101493.80;;;10.80
68939;BMP180;59064;45.294;11.816;2023-03-31T01:07:54;101492.80;;;10.80
68939;BMP180;59064;45.294;11.816;2023-03-31T01:10:21;101493.00;;;10.80
68939;BMP180;59064;45.294;11.816;2023-03-31T01:12:49;101490.80;;;10.80
68939;BMP180;59064;45.294;11.816;2023-03-31T01:15:17;101490.20;;;10.80
68939;BMP180;59064;45.294;11.816;2023-03-31T01:17:43;101494.40;;;10.90
68939;BMP180;59064;45.294;11.816;2023-03-31T01:34:14;101461.80;;;10.90
68939;BMP180;59064;45.294;11.816;2023-03-31T01:39:50;101449.00;;;10.90
68939;BMP180;59064;45.294;11.816;2023-03-31T01:42:38;101442.20;;;10.90
68939;BMP180;59064;45.294;11.816;2023-03-31T01:48:14;101436.20;;;10.90
68939;BMP180;59064;45.294;11.816;2023-03-31T01:50:48;101428.00;;;10.90
68939;BMP180;59064;45.294;11.816;2023-03-31T01:58:38;101431.60;;;10.90
68939;BMP180;59064;45.294;11.816;2023-03-31T02:04:04;101412.00;;;10.90
68939;BMP180;59064;45.294;11.816;2023-03-31T02:06:35;101417.60;;;10.90
68939;BMP180;59064;45.294;11.816;2023-03-31T02:09:08;101423.40;;;10.90
68939;BMP180;59064;45.294;11.816;2023-03-31T02:11:36;101428.20;;;10.90
68939;BMP180;59064;45.294;11.816;2023-03-31T02:14:04;101430.20;;;10.90
68939;BMP180;59064;45.294;11.816;2023-03-31T02:16:35;101425.80;;;10.82
68939;BMP180;59064;45.294;11.816;2023-03-31T02:19:06;101427.40;;;10.80
68939;BMP180;59064;45.294;11.816;2023-03-31T02:21:36;101422.60;;;10.86
68939;BMP180;59064;45.294;11.816;2023-03-31T02:24:09;101420.60;;;10.90
68939;BMP180;59064;45.294;11.816;2023-03-31T02:26:45;101425.00;;;10.90
68939;BMP180;59064;45.294;11.816;2023-03-31T02:29:13;101412.20;;;10.90
68939;BMP180;59064;45.294;11.816;2023-03-31T02:31:45;101405.20;;;10.90
68939;BMP180;59064;45.294;11.816;2023-03-31T02:34:12;101403.80;;;10.90
68939;BMP180;59064;45.294;11.816;2023-03-31T02:36:40;101400.40;;;10.90
68939;BMP180;59064;45.294;11.816;2023-03-31T02:39:14;101390.80;;;10.92
68939;BMP180;59064;45.294;11.816;2023-03-31T02:41:41;101386.40;;;10.98
68939;BMP180;59064;45.294;11.816;2023-03-31T02:44:08;101380.80;;;10.98
68939;BMP180;59064;45.294;11.816;2023-03-31T02:46:35;101381.00;;;11.00
68939;BMP180;59064;45.294;11.816;2023-03-31T02:49:03;101384.40;;;11.00
68939;BMP180;59064;45.294;11.816;2023-03-31T02:54:13;101387.00;;;11.00
68939;BMP180;59064;45.294;11.816;2023-03-31T03:05:40;101378.00;;;11.00
68939;BMP180;59064;45.294;11.816;2023-03-31T03:16:40;101370.40;;;10.90
68939;BMP180;59064;45.294;11.816;2023-03-31T03:19:08;101370.20;;;10.90
68939;BMP180;59064;45.294;11.816;2023-03-31T03:21:34;101377.20;;;10.90
68939;BMP180;59064;45.294;11.816;2023-03-31T03:24:00;101377.40;;;10.90
68939;BMP180;59064;45.294;11.816;2023-03-31T03:26:26;101374.80;;;10.90
68939;BMP180;59064;45.294;11.816;2023-03-31T03:28:54;101377.00;;;10.90
68939;BMP180;59064;45.294;11.816;2023-03-31T03:31:20;101375.80;;;10.90
68939;BMP180;59064;45.294;11.816;2023-03-31T03:33:48;101373.80;;;10.90
68939;BMP180;59064;45.294;11.816;2023-03-31T03:36:14;101374.40;;;10.90
68939;BMP180;59064;45.294;11.816;2023-03-31T03:38:40;101374.00;;;10.90
68939;BMP180;59064;45.294;11.816;2023-03-31T03:41:06;101375.20;;;10.90
68939;BMP180;59064;45.294;11.816;2023-03-31T03:43:32;101377.40;;;10.92
68939;BMP180;59064;45.294;11.816;2023-03-31T03:45:57;101375.20;;;10.96
68939;BMP180;59064;45.294;11.816;2023-03-31T03:48:23;101364.80;;;10.90
68939;BMP180;59064;45.294;11.816;2023-03-31T03:50:48;101365.20;;;10.90
68939;BMP180;59064;45.294;11.816;2023-03-31T03:53:15;101365.20;;;10.90
68939;BMP180;59064;45.294;11.816;2023-03-31T03:55:40;101353.20;;;10.90
68939;BMP180;59064;45.294;11.816;2023-03-31T03:58:06;101338.40;;;10.88
68939;BMP180;59064;45.294;11.816;2023-03-31T04:00:33;101329.40;;;10.80
68939;BMP180;59064;45.294;11.816;2023-03-31T04:02:58;101320.60;;;10.80
68939;BMP180;59064;45.294;11.816;2023-03-31T04:05:24;101309.40;;;10.70
68939;BMP180;59064;45.294;11.816;2023-03-31T04:07:49;101306.20;;;10.68
68939;BMP180;59064;45.294;11.816;2023-03-31T04:10:15;101323.00;;;10.60
68939;BMP180;59064;45.294;11.816;2023-03-31T04:12:40;101337.00;;;10.54
68939;BMP180;59064;45.294;11.816;2023-03-31T04:15:06;101334.40;;;10.50
68939;BMP180;59064;45.294;11.816;2023-03-31T04:17:32;101337.00;;;10.50
68939;BMP180;59064;45.294;11.816;2023-03-31T04:20:05;101331.60;;;10.46
68939;BMP180;59064;45.294;11.816;2023-03-31T04:22:33;101325.80;;;10.42
68939;BMP180;59064;45.294;11.816;2023-03-31T04:25:04;101325.00;;;10.40
68939;BMP180;59064;45.294;11.816;2023-03-31T04:27:34;101329.20;;;10.40
68939;BMP180;59064;45.294;11.816;2023-03-31T04:30:00;101330.20;;;10.40
68939;BMP180;59064;45.294;11.816;2023-03-31T04:32:26;101320.20;;;10.40
68939;BMP180;59064;45.294;11.816;2023-03-31T04:34:52;101317.40;;;10.40
68939;BMP180;59064;45.294;11.816;2023-03-31T04:37:28;101319.00;;;10.40
68939;BMP180;59064;45.294;11.816;2023-03-31T04:40:00;101316.60;;;10.40
68939;BMP180;59064;45.294;11.816;2023-03-31T04:42:31;101309.80;;;10.40
68939;BMP180;59064;45.294;11.816;2023-03-31T04:44:57;101311.20;;;10.40
68939;BMP180;59064;45.294;11.816;2023-03-31T04:47:22;101316.60;;;10.44
68939;BMP180;59064;45.294;11.816;2023-03-31T04:49:48;101321.60;;;10.50
68939;BMP180;59064;45.294;11.816;2023-03-31T04:52:13;101322.20;;;10.50
68939;BMP180;59064;45.294;11.816;2023-03-31T04:54:39;101323.60;;;10.50
68939;BMP180;59064;45.294;11.816;2023-03-31T04:57:05;101314.00;;;10.50
68939;BMP180;59064;45.294;11.816;2023-03-31T04:59:30;101316.80;;;10.50
68939;BMP180;59064;45.294;11.816;2023-03-31T05:01:56;101330.40;;;10.48
68939;BMP180;59064;45.294;11.816;2023-03-31T05:04:21;101330.40;;;10.50
68939;BMP180;59064;45.294;11.816;2023-03-31T05:06:47;101324.60;;;10.50
68939;BMP180;59064;45.294;11.816;2023-03-31T05:09:12;101318.80;;;10.50
68939;BMP180;59064;45.294;11.816;2023-03-31T05:11:38;101310.00;;;10.50
68939;BMP180;59064;45.294;11.816;2023-03-31T05:14:03;101293.80;;;10.60
68939;BMP180;59064;45.294;11.816;2023-03-31T05:16:29;101273.60;;;10.60
68939;BMP180;59064;45.294;11.816;2023-03-31T05:18:55;101269.80;;;10.68
68939;BMP180;59064;45.294;11.816;2023-03-31T05:21:21;101277.40;;;10.70
68939;BMP180;59064;45.294;11.816;2023-03-31T05:23:47;101290.00;;;10.78
68939;BMP180;59064;45.294;11.816;2023-03-31T05:26:13;101295.60;;;10.80
68939;BMP180;59064;45.294;11.816;2023-03-31T05:28:39;101294.60;;;10.80
68939;BMP180;59064;45.294;11.816;2023-03-31T05:31:05;101294.00;;;10.88
68939;BMP180;59064;45.294;11.816;2023-03-31T05:33:31;101296.80;;;10.90
68939;BMP180;59064;45.294;11.816;2023-03-31T05:35:56;101307.00;;;10.90
68939;BMP180;59064;45.294;11.816;2023-03-31T05:38:25;101303.60;;;10.90
68939;BMP180;59064;45.294;11.816;2023-03-31T05:40:54;101290.60;;;10.90
68939;BMP180;59064;45.294;11.816;2023-03-31T05:43:19;101291.80;;;10.90
68939;BMP180;59064;45.294;11.816;2023-03-31T05:45:45;101288.80;;;11.00
68939;BMP180;59064;45.294;11.816;2023-03-31T05:48:10;101289.40;;;11.00
68939;BMP180;59064;45.294;11.816;2023-03-31T05:50:36;101283.40;;;11.02
68939;BMP180;59064;45.294;11.816;2023-03-31T05:53:02;101281.40;;;11.10
68939;BMP180;59064;45.294;11.816;2023-03-31T05:55:28;101285.20;;;11.10
68939;BMP180;59064;45.294;11.816;2023-03-31T05:57:53;101286.80;;;11.10
68939;BMP180;59064;45.294;11.816;2023-03-31T06:00:19;101284.60;;;11.20
68939;BMP180;59064;45.294;11.816;2023-03-31T06:02:45;101276.20;;;11.20
68939;BMP180;59064;45.294;11.816;2023-03-31T06:05:11;101278.20;;;11.20
68939;BMP180;59064;45.294;11.816;2023-03-31T06:07:36;101288.80;;;11.20
68939;BMP180;59064;45.294;11.816;2023-03-31T06:10:02;101283.40;;;11.28
68939;BMP180;59064;45.294;11.816;2023-03-31T06:12:28;101288.60;;;11.30
68939;BMP180;59064;45.294;11.816;2023-03-31T06:14:53;101293.80;;;11.30
68939;BMP180;59064;45.294;11.816;2023-03-31T06:17:19;101292.60;;;11.30
68939;BMP180;59064;45.294;11.816;2023-03-31T06:19:45;101296.80;;;11.30
68939;BMP180;59064;45.294;11.816;2023-03-31T06:22:10;101302.40;;;11.40
68939;BMP180;59064;45.294;11.816;2023-03-31T06:24:36;101300.00;;;11.40
68939;BMP180;59064;45.294;11.816;2023-03-31T06:27:01;101291.20;;;11.40
68939;BMP180;59064;45.294;11.816;2023-03-31T06:29:28;101282.20;;;11.40
68939;BMP180;59064;45.294;11.816;2023-03-31T06:31:53;101268.60;;;11.46
68939;BMP180;59064;45.294;11.816;2023-03-31T06:34:20;101252.40;;;11.50
68939;BMP180;59064;45.294;11.816;2023-03-31T06:36:46;101250.40;;;11.50
68939;BMP180;59064;45.294;11.816;2023-03-31T06:39:11;101242.60;;;11.56
68939;BMP180;59064;45.294;11.816;2023-03-31T06:41:37;101235.20;;;11.60
68939;BMP180;59064;45.294;11.816;2023-03-31T06:44:03;101246.80;;;11.60
68939;BMP180;59064;45.294;11.816;2023-03-31T06:46:28;101253.00;;;11.70
68939;BMP180;59064;45.294;11.816;2023-03-31T06:48:54;101237.20;;;11.70
68939;BMP180;59064;45.294;11.816;2023-03-31T06:51:20;101233.60;;;11.80
68939;BMP180;59064;45.294;11.816;2023-03-31T06:53:46;101244.60;;;11.80
68939;BMP180;59064;45.294;11.816;2023-03-31T06:56:11;101231.20;;;11.80
68939;BMP180;59064;45.294;11.816;2023-03-31T06:58:37;101224.80;;;11.84
68939;BMP180;59064;45.294;11.816;2023-03-31T07:01:04;101227.60;;;11.90
68939;BMP180;59064;45.294;11.816;2023-03-31T07:03:31;101219.60;;;11.90
68939;BMP180;59064;45.294;11.816;2023-03-31T07:05:57;101209.20;;;11.90
68939;BMP180;59064;45.294;11.816;2023-03-31T07:08:23;101203.40;;;11.92
68939;BMP180;59064;45.294;11.816;2023-03-31T07:10:53;101189.20;;;12.00
68939;BMP180;59064;45.294;11.816;2023-03-31T07:13:19;101189.40;;;12.00
68939;BMP180;59064;45.294;11.816;2023-03-31T07:15:48;101194.60;;;12.10
68939;BMP180;59064;45.294;11.816;2023-03-31T07:18:15;101198.20;;;12.12
68939;BMP180;59064;45.294;11.816;2023-03-31T07:20:41;101194.20;;;12.20
68939;BMP180;59064;45.294;11.816;2023-03-31T07:23:08;101191.80;;;12.30
68939;BMP180;59064;45.294;11.816;2023-03-31T07:25:34;101191.20;;;12.38
68939;BMP180;59064;45.294;11.816;2023-03-31T07:28:00;101196.00;;;12.42
68939;BMP180;59064;45.294;11.816;2023-03-31T07:30:26;101196.80;;;12.60
68939;BMP180;59064;45.294;11.816;2023-03-31T07:32:52;101205.40;;;12.70
68939;BMP180;59064;45.294;11.816;2023-03-31T07:35:19;101206.20;;;12.80
68939;BMP180;59064;45.294;11.816;2023-03-31T07:37:46;101206.60;;;12.82
68939;BMP180;59064;45.294;11.816;2023-03-31T07:40:19;101196.60;;;13.00
68939;BMP180;59064;45.294;11.816;2023-03-31T07:42:47;101184.00;;;13.20
68939;BMP180;59064;45.294;11.816;2023-03-31T07:45:14;101163.60;;;13.44
68939;BMP180;59064;45.294;11.816;2023-03-31T07:47:40;101161.40;;;13.60
68939;BMP180;59064;45.294;11.816;2023-03-31T07:50:08;101175.40;;;13.76
68939;BMP180;59064;45.294;11.816;2023-03-31T07:52:33;101185.00;;;13.92
68939;BMP180;59064;45.294;11.816;2023-03-31T07:54:59;101192.60;;;14.08
68939;BMP180;59064;45.294;11.816;2023-03-31T07:57:25;101196.80;;;14.10
68939;BMP180;59064;45.294;11.816;2023-03-31T07:59:50;101192.20;;;14.10
68939;BMP180;59064;45.294;11.816;2023-03-31T08:02:16;101188.60;;;14.10
68939;BMP180;59064;45.294;11.816;2023-03-31T08:04:43;101182.40;;;14.00
68939;BMP180;59064;45.294;11.816;2023-03-31T08:07:09;101177.20;;;14.20
68939;BMP180;59064;45.294;11.816;2023-03-31T08:09:36;101177.20;;;14.38
68939;BMP180;59064;45.294;11.816;2023-03-31T08:12:01;101167.20;;;14.60
68939;BMP180;59064;45.294;11.816;2023-03-31T08:14:27;101163.80;;;14.70
68939;BMP180;59064;45.294;11.816;2023-03-31T08:16:52;101169.40;;;14.70
68939;BMP180;59064;45.294;11.816;2023-03-31T08:19:20;101174.60;;;14.88
68939;BMP180;59064;45.294;11.816;2023-03-31T08:21:46;101175.60;;;15.00
68939;BMP180;59064;45.294;11.816;2023-03-31T08:24:12;101183.60;;;15.10
68939;BMP180;59064;45.294;11.816;2023-03-31T08:26:40;101172.80;;;15.20
68939;BMP180;59064;45.294;11.816;2023-03-31T08:29:06;101161.80;;;15.20
68939;BMP180;59064;45.294;11.816;2023-03-31T08:31:31;101172.00;;;15.10
68939;BMP180;59064;45.294;11.816;2023-03-31T08:33:57;101179.80;;;15.20
68939;BMP180;59064;45.294;11.816;2023-03-31T08:36:22;101179.80;;;15.40
68939;BMP180;59064;45.294;11.816;2023-03-31T08:38:48;101179.80;;;15.64
68939;BMP180;59064;45.294;11.816;2023-03-31T08:41:39;101175.40;;;15.90
68939;BMP180;59064;45.294;11.816;2023-03-31T08:46:52;101179.60;;;16.30
68939;BMP180;59064;45.294;11.816;2023-03-31T08:49:20;101173.80;;;16.30
68939;BMP180;59064;45.294;11.816;2023-03-31T08:51:53;101162.40;;;16.48
68939;BMP180;59064;45.294;11.816;2023-03-31T08:56:58;101145.80;;;17.20
68939;BMP180;59064;45.294;11.816;2023-03-31T08:59:29;101145.60;;;17.46
68939;BMP180;59064;45.294;11.816;2023-03-31T09:02:25;101140.40;;;17.40
68939;BMP180;59064;45.294;11.816;2023-03-31T09:08:03;101146.40;;;17.10
68939;BMP180;59064;45.294;11.816;2023-03-31T09:10:52;101139.40;;;17.00
68939;BMP180;59064;45.294;11.816;2023-03-31T09:13:42;101133.80;;;16.90
68939;BMP180;59064;45.294;11.816;2023-03-31T09:16:35;101141.20;;;16.90
68939;BMP180;59064;45.294;11.816;2023-03-31T09:19:02;101137.80;;;17.00
68939;BMP180;59064;45.294;11.816;2023-03-31T09:21:31;101136.60;;;17.00
68939;BMP180;59064;45.294;11.816;2023-03-31T09:24:10;101128.00;;;16.80
68939;BMP180;59064;45.294;11.816;2023-03-31T09:26:39;101130.00;;;16.70
68939;BMP180;59064;45.294;11.816;2023-03-31T09:29:15;101130.00;;;16.70
68939;BMP180;59064;45.294;11.816;2023-03-31T09:31:43;101140.20;;;16.80
68939;BMP180;59064;45.294;11.816;2023-03-31T09:34:22;101133.40;;;16.60
68939;BMP180;59064;45.294;11.816;2023-03-31T09:36:48;101129.60;;;16.60
68939;BMP180;59064;45.294;11.816;2023-03-31T09:39:14;101132.20;;;16.66
68939;BMP180;59064;45.294;11.816;2023-03-31T09:41:48;101135.20;;;16.70
68939;BMP180;59064;45.294;11.816;2023-03-31T09:46:52;101141.20;;;16.50
68939;BMP180;59064;45.294;11.816;2023-03-31T09:49:20;101139.60;;;16.30
68939;BMP180;59064;45.294;11.816;2023-03-31T09:51:51;101134.40;;;16.10
68939;BMP180;59064;45.294;11.816;2023-03-31T09:54:28;101123.40;;;15.90
68939;BMP180;59064;45.294;11.816;2023-03-31T09:56:56;101118.80;;;15.90
68939;BMP180;59064;45.294;11.816;2023-03-31T09:59:32;101106.60;;;15.92
68939;BMP180;59064;45.294;11.816;2023-03-31T10:02:08;101098.20;;;16.00
68939;BMP180;59064;45.294;11.816;2023-03-31T10:04:44;101088.80;;;16.00
68939;BMP180;59064;45.294;11.816;2023-03-31T10:07:10;101080.80;;;16.00
68939;BMP180;59064;45.294;11.816;2023-03-31T10:09:37;101075.00;;;16.10
68939;BMP180;59064;45.294;11.816;2023-03-31T10:12:07;101074.00;;;16.10
68939;BMP180;59064;45.294;11.816;2023-03-31T10:14:46;101062.60;;;16.20
68939;BMP180;59064;45.294;11.816;2023-03-31T10:17:21;101056.40;;;16.20
68939;BMP180;59064;45.294;11.816;2023-03-31T10:19:58;101057.40;;;16.30
68939;BMP180;59064;45.294;11.816;2023-03-31T10:22:29;101059.00;;;16.34
68939;BMP180;59064;45.294;11.816;2023-03-31T10:25:15;101055.60;;;16.50
68939;BMP180;59064;45.294;11.816;2023-03-31T10:27:45;101045.00;;;16.40
68939;BMP180;59064;45.294;11.816;2023-03-31T10:30:20;101038.40;;;16.40
68939;BMP180;59064;45.294;11.816;2023-03-31T10:32:47;101035.60;;;16.30
68939;BMP180;59064;45.294;11.816;2023-03-31T10:35:26;101038.60;;;16.40
68939;BMP180;59064;45.294;11.816;2023-03-31T10:37:56;101034.80;;;16.30
68939;BMP180;59064;45.294;11.816;2023-03-31T10:40:27;101024.40;;;16.30
68939;BMP180;59064;45.294;11.816;2023-03-31T10:43:20;101017.60;;;16.40
68939;BMP180;59064;45.294;11.816;2023-03-31T10:45:54;101001.60;;;16.48
68939;BMP180;59064;45.294;11.816;2023-03-31T10:50:51;101004.40;;;16.38
68939;BMP180;59064;45.294;11.816;2023-03-31T10:53:17;100996.20;;;16.30
68939;BMP180;59064;45.294;11.816;2023-03-31T11:09:18;100978.80;;;16.30
68939;BMP180;59064;45.294;11.816;2023-03-31T11:12:17;100977.60;;;16.30
68939;BMP180;59064;45.294;11.816;2023-03-31T11:17:41;100976.20;;;16.20
68939;BMP180;59064;45.294;11.816;2023-03-31T11:25:38;100954.20;;;16.20
68939;BMP180;59064;45.294;11.816;2023-03-31T11:28:24;100947.00;;;16.40
68939;BMP180;59064;45.294;11.816;2023-03-31T11:36:28;100927.00;;;17.00
68939;BMP180;59064;45.294;11.816;2023-03-31T11:39:10;100914.00;;;17.22
68939;BMP180;59064;45.294;11.816;2023-03-31T11:41:49;100898.00;;;17.58
68939;BMP180;59064;45.294;11.816;2023-03-31T11:44:18;100890.80;;;17.60
68939;BMP180;59064;45.294;11.816;2023-03-31T11:47:07;100885.80;;;17.70
68939;BMP180;59064;45.294;11.816;2023-03-31T11:49:37;100878.00;;;17.64
68939;BMP180;59064;45.294;11.816;2023-03-31T11:52:18;100872.40;;;17.70
68939;BMP180;59064;45.294;11.816;2023-03-31T12:00:23;100848.60;;;18.20
68939;BMP180;59064;45.294;11.816;2023-03-31T12:03:15;100846.20;;;18.36
68939;BMP180;59064;45.294;11.816;2023-03-31T12:05:47;100848.80;;;18.40
68939;BMP180;59064;45.294;11.816;2023-03-31T12:08:29;100849.60;;;18.30
68939;BMP180;59064;45.294;11.816;2023-03-31T12:11:08;100840.40;;;17.84
68939;BMP180;59064;45.294;11.816;2023-03-31T12:16:22;100815.00;;;17.50
68939;BMP180;59064;45.294;11.816;2023-03-31T12:18:59;100810.60;;;17.58
68939;BMP180;59064;45.294;11.816;2023-03-31T12:21:28;100806.60;;;17.40
68939;BMP180;59064;45.294;11.816;2023-03-31T12:23:55;100790.80;;;17.40
68939;BMP180;59064;45.294;11.816;2023-03-31T12:26:49;100787.60;;;17.50
68939;BMP180;59064;45.294;11.816;2023-03-31T12:31:57;100780.00;;;17.64
68939;BMP180;59064;45.294;11.816;2023-03-31T12:34:25;100781.40;;;17.50
68939;BMP180;59064;45.294;11.816;2023-03-31T12:55:49;100737.20;;;17.80
68939;BMP180;59064;45.294;11.816;2023-03-31T13:11:35;100698.20;;;17.70
68939;BMP180;59064;45.294;11.816;2023-03-31T13:14:22;100691.80;;;17.60
68939;BMP180;59064;45.294;11.816;2023-03-31T13:16:49;100682.80;;;17.60
68939;BMP180;59064;45.294;11.816;2023-03-31T13:19:36;100681.80;;;17.60
68939;BMP180;59064;45.294;11.816;2023-03-31T13:22:04;100677.60;;;17.60
68939;BMP180;59064;45.294;11.816;2023-03-31T13:24:32;100675.20;;;17.70
68939;BMP180;59064;45.294;11.816;2023-03-31T13:27:33;100671.40;;;17.70
68939;BMP180;59064;45.294;11.816;2023-03-31T13:29:59;100659.00;;;17.80
68939;BMP180;59064;45.294;11.816;2023-03-31T13:32:25;100657.60;;;17.84
68939;BMP180;59064;45.294;11.816;2023-03-31T13:35:01;100655.00;;;17.98
68939;BMP180;59064;45.294;11.816;2023-03-31T13:38:03;100648.80;;;18.10
68939;BMP180;59064;45.294;11.816;2023-03-31T13:50:04;100606.80;;;17.68
68939;BMP180;59064;45.294;11.816;2023-03-31T13:58:27;100603.40;;;17.40
68939;BMP180;59064;45.294;11.816;2023-03-31T14:04:09;100585.40;;;17.40
68939;BMP180;59064;45.294;11.816;2023-03-31T14:06:58;100588.60;;;17.26
68939;BMP180;59064;45.294;11.816;2023-03-31T14:09:31;100582.40;;;17.10
68939;BMP180;59064;45.294;11.816;2023-03-31T14:11:58;100581.80;;;17.00
68939;BMP180;59064;45.294;11.816;2023-03-31T14:14:24;100575.60;;;16.90
68939;BMP180;59064;45.294;11.816;2023-03-31T14:16:56;100572.00;;;16.80
68939;BMP180;59064;45.294;11.816;2023-03-31T14:36:26;100549.40;;;16.40
68939;BMP180;59064;45.294;11.816;2023-03-31T14:39:00;100547.60;;;16.30
68939;BMP180;59064;45.294;11.816;2023-03-31T14:41:27;100542.00;;;16.20
68939;BMP180;59064;45.294;11.816;2023-03-31T14:43:59;100541.00;;;16.10
68939;BMP180;59064;45.294;11.816;2023-03-31T14:46:29;100530.40;;;16.10
68939;BMP180;59064;45.294;11.816;2023-03-31T14:48:57;100524.20;;;16.06
68939;BMP180;59064;45.294;11.816;2023-03-31T14:51:26;100521.60;;;16.02
68939;BMP180;59064;45.294;11.816;2023-03-31T14:54:00;100519.40;;;16.00
68939;BMP180;59064;45.294;11.816;2023-03-31T14:56:39;100511.20;;;16.00
68939;BMP180;59064;45.294;11.816;2023-03-31T14:59:06;100502.40;;;16.06
68939;BMP180;59064;45.294;11.816;2023-03-31T15:01:34;100493.00;;;16.00
68939;BMP180;59064;45.294;11.816;2023-03-31T15:04:10;100489.60;;;16.00
68939;BMP180;59064;45.294;11.816;2023-03-31T15:06:38;100483.60;;;15.90
68939;BMP180;59064;45.294;11.816;2023-03-31T15:09:06;100474.00;;;15.90
68939;BMP180;59064;45.294;11.816;2023-03-31T15:11:35;100465.00;;;15.90
68939;BMP180;59064;45.294;11.816;2023-03-31T15:14:01;100454.80;;;15.82
68939;BMP180;59064;45.294;11.816;2023-03-31T15:16:28;100445.40;;;15.80
68939;BMP180;59064;45.294;11.816;2023-03-31T15:18:56;100439.00;;;15.76
68939;BMP180;59064;45.294;11.816;2023-03-31T15:21:24;100434.80;;;15.70
68939;BMP180;59064;45.294;11.816;2023-03-31T15:23:51;100434.80;;;15.62
68939;BMP180;59064;45.294;11.816;2023-03-31T15:26:19;100432.40;;;15.60
68939;BMP180;59064;45.294;11.816;2023-03-31T15:28:56;100434.20;;;15.56
68939;BMP180;59064;45.294;11.816;2023-03-31T15:31:25;100431.60;;;15.50
68939;BMP180;59064;45.294;11.816;2023-03-31T15:33:51;100427.20;;;15.50
68939;BMP180;59064;45.294;11.816;2023-03-31T15:36:19;100420.60;;;15.50
68939;BMP180;59064;45.294;11.816;2023-03-31T15:38:45;100414.20;;;15.42
68939;BMP180;59064;45.294;11.816;2023-03-31T15:41:15;100403.20;;;15.40
68939;BMP180;59064;45.294;11.816;2023-03-31T15:43:45;100403.40;;;15.40
68939;BMP180;59064;45.294;11.816;2023-03-31T15:46:23;100395.20;;;15.40
68939;BMP180;59064;45.294;11.816;2023-03-31T15:48:53;100392.60;;;15.34
68939;BMP180;59064;45.294;11.816;2023-03-31T15:51:33;100388.60;;;15.30
68939;BMP180;59064;45.294;11.816;2023-03-31T15:53:59;100386.20;;;15.20
68939;BMP180;59064;45.294;11.816;2023-03-31T15:56:41;100390.60;;;15.10
68939;BMP180;59064;45.294;11.816;2023-03-31T16:01:48;100389.40;;;14.86
68939;BMP180;59064;45.294;11.816;2023-03-31T16:04:14;100391.20;;;14.70
68939;BMP180;59064;45.294;11.816;2023-03-31T16:06:45;100398.00;;;14.60
68939;BMP180;59064;45.294;11.816;2023-03-31T16:11:57;100392.00;;;14.50
68939;BMP180;59064;45.294;11.816;2023-03-31T16:14:32;100383.00;;;14.40
68939;BMP180;59064;45.294;11.816;2023-03-31T16:17:02;100384.60;;;14.40
68939;BMP180;59064;45.294;11.816;2023-03-31T16:19:38;100387.20;;;14.36
68939;BMP180;59064;45.294;11.816;2023-03-31T16:22:05;100386.60;;;14.30
68939;BMP180;59064;45.294;11.816;2023-03-31T16:24:32;100385.60;;;14.30
68939;BMP180;59064;45.294;11.816;2023-03-31T16:27:02;100387.60;;;14.20
68939;BMP180;59064;45.294;11.816;2023-03-31T16:29:31;100390.00;;;14.20
68939;BMP180;59064;45.294;11.816;2023-03-31T16:32:15;100392.40;;;14.20
68939;BMP180;59064;45.294;11.816;2023-03-31T16:35:10;100397.00;;;14.20
68939;BMP180;59064;45.294;11.816;2023-03-31T16:37:36;100392.20;;;14.12
68939;BMP180;59064;45.294;11.816;2023-03-31T16:40:01;100391.80;;;14.10
68939;BMP180;59064;45.294;11.816;2023-03-31T16:42:29;100393.80;;;14.10
68939;BMP180;59064;45.294;11.816;2023-03-31T16:44:54;100396.20;;;14.10
68939;BMP180;59064;45.294;11.816;2023-03-31T16:47:20;100391.60;;;14.10
68939;BMP180;59064;45.294;11.816;2023-03-31T16:49:45;100381.80;;;14.08
68939;BMP180;59064;45.294;11.816;2023-03-31T16:52:11;100369.60;;;14.00
68939;BMP180;59064;45.294;11.816;2023-03-31T16:54:37;100366.00;;;14.00